Martin Park, Louisiana
Current Conditions -  °F | °C
As of 12:53 PM on Thursday 18 Dec 2014 (Local Time) from KAEX Reporting Station
Light Rain Light Rain  
Wind Chill: 51°   Ceiling: 600
Heat Index: 51°   Visibility: 10mi
Dew Point: 49°   Wind: 5mph
Humidity: 92%   Direction: 60°ENE
Pressure: 30.12"   Gusts: NA
Location:  31.2655°N, 92.4705°W
Report Text: KAEX 181853Z 06004KT 10SM -RA OVC006 11/09 A3012 RMK AO2 RAB1759E12B44 SLP203 P0000 T01060094
Loading
Personal Weather Stations






























Interactive Weather Map New forecast layout! Learn more

10-Day Weather Forecast

Advertisements
Track Severe Weather on mobile